sensor_id;sensor_type;location;lat;lon;timestamp;temperature;humidity
24103;DHT22;12278;53.058;9.028;2023-06-14T00:00:00;16.90;99.90
24103;DHT22;12278;53.058;9.028;2023-06-14T00:04:01;16.80;99.90
24103;DHT22;12278;53.058;9.028;2023-06-14T00:08:01;16.80;99.90
24103;DHT22;12278;53.058;9.028;2023-06-14T00:12:03;16.80;99.90
24103;DHT22;12278;53.058;9.028;2023-06-14T00:16:04;16.70;99.90
24103;DHT22;12278;53.058;9.028;2023-06-14T00:20:05;16.70;99.90
24103;DHT22;12278;53.058;9.028;2023-06-14T00:24:07;16.70;99.90
24103;DHT22;12278;53.058;9.028;2023-06-14T00:28:07;16.70;99.90
24103;DHT22;12278;53.058;9.028;2023-06-14T00:32:08;16.60;99.90
24103;DHT22;12278;53.058;9.028;2023-06-14T00:36:08;16.60;99.90
24103;DHT22;12278;53.058;9.028;2023-06-14T00:40:09;16.60;99.90
24103;DHT22;12278;53.058;9.028;2023-06-14T00:44:11;16.50;99.90
24103;DHT22;12278;53.058;9.028;2023-06-14T00:48:12;16.40;99.90
24103;DHT22;12278;53.058;9.028;2023-06-14T00:52:13;16.40;99.90
24103;DHT22;12278;53.058;9.028;2023-06-14T00:56:14;16.40;99.90
24103;DHT22;12278;53.058;9.028;2023-06-14T01:00:16;16.40;99.90
24103;DHT22;12278;53.058;9.028;2023-06-14T01:04:16;16.40;99.90
24103;DHT22;12278;53.058;9.028;2023-06-14T01:08:24;16.30;99.90
24103;DHT22;12278;53.058;9.028;2023-06-14T01:16:40;16.20;99.90
24103;DHT22;12278;53.058;9.028;2023-06-14T01:20:42;16.20;99.90
24103;DHT22;12278;53.058;9.028;2023-06-14T01:24:42;16.20;99.90
24103;DHT22;12278;53.058;9.028;2023-06-14T01:28:45;16.10;99.90
24103;DHT22;12278;53.058;9.028;2023-06-14T01:32:48;16.00;99.90
24103;DHT22;12278;53.058;9.028;2023-06-14T01:36:50;16.00;99.90
24103;DHT22;12278;53.058;9.028;2023-06-14T01:40:55;16.00;99.90
24103;DHT22;12278;53.058;9.028;2023-06-14T01:44:56;15.90;99.90
24103;DHT22;12278;53.058;9.028;2023-06-14T01:48:57;15.80;99.90
24103;DHT22;12278;53.058;9.028;2023-06-14T01:52:57;15.60;99.90
24103;DHT22;12278;53.058;9.028;2023-06-14T01:56:59;15.60;99.90
24103;DHT22;12278;53.058;9.028;2023-06-14T02:01:00;15.50;99.90
24103;DHT22;12278;53.058;9.028;2023-06-14T02:05:00;15.30;99.90
24103;DHT22;12278;53.058;9.028;2023-06-14T02:09:02;15.30;99.90
24103;DHT22;12278;53.058;9.028;2023-06-14T02:13:03;15.20;99.90
24103;DHT22;12278;53.058;9.028;2023-06-14T02:17:05;15.20;99.90
24103;DHT22;12278;53.058;9.028;2023-06-14T02:21:06;15.20;99.90
24103;DHT22;12278;53.058;9.028;2023-06-14T02:25:07;15.20;99.90
24103;DHT22;12278;53.058;9.028;2023-06-14T02:29:08;15.10;99.90
24103;DHT22;12278;53.058;9.028;2023-06-14T02:33:12;15.10;99.90
24103;DHT22;12278;53.058;9.028;2023-06-14T02:37:13;15.00;99.90
24103;DHT22;12278;53.058;9.028;2023-06-14T02:41:13;15.00;99.90
24103;DHT22;12278;53.058;9.028;2023-06-14T02:45:14;14.90;99.90
24103;DHT22;12278;53.058;9.028;2023-06-14T02:49:15;14.90;99.90
24103;DHT22;12278;53.058;9.028;2023-06-14T02:53:15;15.00;99.90
24103;DHT22;12278;53.058;9.028;2023-06-14T02:57:16;14.80;99.90
24103;DHT22;12278;53.058;9.028;2023-06-14T03:01:16;14.80;99.90
24103;DHT22;12278;53.058;9.028;2023-06-14T03:05:19;14.80;99.90
24103;DHT22;12278;53.058;9.028;2023-06-14T03:09:21;14.80;99.90
24103;DHT22;12278;53.058;9.028;2023-06-14T03:13:22;14.80;99.90
24103;DHT22;12278;53.058;9.028;2023-06-14T03:17:22;14.80;99.90
24103;DHT22;12278;53.058;9.028;2023-06-14T03:21:25;14.90;99.90
24103;DHT22;12278;53.058;9.028;2023-06-14T03:25:29;14.90;99.90
24103;DHT22;12278;53.058;9.028;2023-06-14T03:29:30;14.80;99.90
24103;DHT22;12278;53.058;9.028;2023-06-14T03:33:30;14.70;99.90
24103;DHT22;12278;53.058;9.028;2023-06-14T03:37:31;14.80;99.90
24103;DHT22;12278;53.058;9.028;2023-06-14T03:41:31;14.80;99.90
24103;DHT22;12278;53.058;9.028;2023-06-14T03:45:32;14.80;99.90
24103;DHT22;12278;53.058;9.028;2023-06-14T03:49:33;14.80;99.90
24103;DHT22;12278;53.058;9.028;2023-06-14T03:53:33;14.80;99.90
24103;DHT22;12278;53.058;9.028;2023-06-14T03:57:37;14.90;99.90
24103;DHT22;12278;53.058;9.028;2023-06-14T04:01:37;14.90;99.90
24103;DHT22;12278;53.058;9.028;2023-06-14T04:05:38;15.00;99.90
24103;DHT22;12278;53.058;9.028;2023-06-14T04:09:42;15.00;99.90
24103;DHT22;12278;53.058;9.028;2023-06-14T04:13:42;14.90;99.90
24103;DHT22;12278;53.058;9.028;2023-06-14T04:17:43;15.00;99.90
24103;DHT22;12278;53.058;9.028;2023-06-14T04:21:43;15.10;99.90
24103;DHT22;12278;53.058;9.028;2023-06-14T04:25:49;15.10;99.90
24103;DHT22;12278;53.058;9.028;2023-06-14T04:29:50;15.10;99.90
24103;DHT22;12278;53.058;9.028;2023-06-14T04:33:57;15.10;99.90
24103;DHT22;12278;53.058;9.028;2023-06-14T04:37:58;15.30;99.90
24103;DHT22;12278;53.058;9.028;2023-06-14T04:41:59;15.30;99.90
24103;DHT22;12278;53.058;9.028;2023-06-14T04:50:07;15.40;99.90
24103;DHT22;12278;53.058;9.028;2023-06-14T04:54:08;15.60;99.90
24103;DHT22;12278;53.058;9.028;2023-06-14T04:58:10;15.60;99.90
24103;DHT22;12278;53.058;9.028;2023-06-14T05:02:13;15.70;99.90
24103;DHT22;12278;53.058;9.028;2023-06-14T05:06:13;15.70;99.90
24103;DHT22;12278;53.058;9.028;2023-06-14T05:10:14;15.80;99.90
24103;DHT22;12278;53.058;9.028;2023-06-14T05:14:14;15.90;99.90
24103;DHT22;12278;53.058;9.028;2023-06-14T05:18:15;15.90;99.90
24103;DHT22;12278;53.058;9.028;2023-06-14T05:22:16;16.00;99.90
24103;DHT22;12278;53.058;9.028;2023-06-14T05:26:16;16.20;99.90
24103;DHT22;12278;53.058;9.028;2023-06-14T05:30:17;16.30;99.90
24103;DHT22;12278;53.058;9.028;2023-06-14T05:34:17;16.40;99.90
24103;DHT22;12278;53.058;9.028;2023-06-14T05:38:19;16.40;99.90
24103;DHT22;12278;53.058;9.028;2023-06-14T05:42:20;16.40;99.90
24103;DHT22;12278;53.058;9.028;2023-06-14T05:46:23;16.40;99.90
24103;DHT22;12278;53.058;9.028;2023-06-14T05:50:24;16.60;99.90
24103;DHT22;12278;53.058;9.028;2023-06-14T05:54:25;16.60;99.90
24103;DHT22;12278;53.058;9.028;2023-06-14T05:58:26;16.70;99.90
24103;DHT22;12278;53.058;9.028;2023-06-14T06:02:26;16.80;99.90
24103;DHT22;12278;53.058;9.028;2023-06-14T06:06:27;17.00;99.90
24103;DHT22;12278;53.058;9.028;2023-06-14T06:10:27;17.00;99.90
24103;DHT22;12278;53.058;9.028;2023-06-14T06:14:28;17.20;99.90
24103;DHT22;12278;53.058;9.028;2023-06-14T06:18:28;17.30;99.90
24103;DHT22;12278;53.058;9.028;2023-06-14T06:22:29;17.50;99.90
24103;DHT22;12278;53.058;9.028;2023-06-14T06:26:30;17.70;99.90
24103;DHT22;12278;53.058;9.028;2023-06-14T06:30:31;17.80;99.90
24103;DHT22;12278;53.058;9.028;2023-06-14T06:34:31;18.00;99.90
24103;DHT22;12278;53.058;9.028;2023-06-14T06:38:32;18.20;99.90
24103;DHT22;12278;53.058;9.028;2023-06-14T06:42:32;18.50;99.90
24103;DHT22;12278;53.058;9.028;2023-06-14T06:46:33;18.60;99.90
24103;DHT22;12278;53.058;9.028;2023-06-14T06:50:34;18.70;99.90
24103;DHT22;12278;53.058;9.028;2023-06-14T06:54:34;18.80;99.90
24103;DHT22;12278;53.058;9.028;2023-06-14T06:58:35;19.00;99.90
24103;DHT22;12278;53.058;9.028;2023-06-14T07:02:35;19.20;99.90
24103;DHT22;12278;53.058;9.028;2023-06-14T07:06:36;19.60;99.90
24103;DHT22;12278;53.058;9.028;2023-06-14T07:10:37;19.80;99.90
24103;DHT22;12278;53.058;9.028;2023-06-14T07:14:38;20.00;99.90
24103;DHT22;12278;53.058;9.028;2023-06-14T07:18:38;20.40;99.90
24103;DHT22;12278;53.058;9.028;2023-06-14T07:22:42;20.60;99.90
24103;DHT22;12278;53.058;9.028;2023-06-14T07:26:42;20.70;99.90
24103;DHT22;12278;53.058;9.028;2023-06-14T07:30:43;21.00;99.80
24103;DHT22;12278;53.058;9.028;2023-06-14T07:34:44;21.20;99.70
24103;DHT22;12278;53.058;9.028;2023-06-14T07:38:45;21.30;99.40
24103;DHT22;12278;53.058;9.028;2023-06-14T07:42:46;21.60;98.30
24103;DHT22;12278;53.058;9.028;2023-06-14T07:46:46;21.80;97.30
24103;DHT22;12278;53.058;9.028;2023-06-14T07:50:49;22.10;97.00
24103;DHT22;12278;53.058;9.028;2023-06-14T07:54:49;22.00;95.50
24103;DHT22;12278;53.058;9.028;2023-06-14T07:58:50;22.20;96.40
24103;DHT22;12278;53.058;9.028;2023-06-14T08:02:50;22.40;96.70
24103;DHT22;12278;53.058;9.028;2023-06-14T08:06:52;22.60;95.70
24103;DHT22;12278;53.058;9.028;2023-06-14T08:10:52;22.50;95.60
24103;DHT22;12278;53.058;9.028;2023-06-14T08:14:53;22.60;95.60
24103;DHT22;12278;53.058;9.028;2023-06-14T08:18:54;22.90;94.80
24103;DHT22;12278;53.058;9.028;2023-06-14T08:22:55;22.90;94.70
24103;DHT22;12278;53.058;9.028;2023-06-14T08:26:59;22.90;94.90
24103;DHT22;12278;53.058;9.028;2023-06-14T08:31:01;23.00;94.10
24103;DHT22;12278;53.058;9.028;2023-06-14T08:35:02;23.30;94.50
24103;DHT22;12278;53.058;9.028;2023-06-14T08:39:02;23.30;94.50
24103;DHT22;12278;53.058;9.028;2023-06-14T08:43:03;23.30;94.50
24103;DHT22;12278;53.058;9.028;2023-06-14T08:47:04;23.60;94.20
24103;DHT22;12278;53.058;9.028;2023-06-14T08:51:06;23.60;94.00
24103;DHT22;12278;53.058;9.028;2023-06-14T08:55:08;23.90;94.10
24103;DHT22;12278;53.058;9.028;2023-06-14T08:59:09;23.80;93.60
24103;DHT22;12278;53.058;9.028;2023-06-14T09:03:09;23.50;94.20
24103;DHT22;12278;53.058;9.028;2023-06-14T09:07:13;23.10;95.20
24103;DHT22;12278;53.058;9.028;2023-06-14T09:11:14;23.70;94.70
24103;DHT22;12278;53.058;9.028;2023-06-14T09:15:15;24.00;93.60
24103;DHT22;12278;53.058;9.028;2023-06-14T09:19:23;24.30;94.70
24103;DHT22;12278;53.058;9.028;2023-06-14T09:23:24;24.00;94.10
24103;DHT22;12278;53.058;9.028;2023-06-14T09:27:32;24.40;93.80
24103;DHT22;12278;53.058;9.028;2023-06-14T09:31:34;24.50;94.20
24103;DHT22;12278;53.058;9.028;2023-06-14T09:35:35;25.00;93.30
24103;DHT22;12278;53.058;9.028;2023-06-14T09:39:48;24.90;92.40
24103;DHT22;12278;53.058;9.028;2023-06-14T09:43:49;24.90;92.40
24103;DHT22;12278;53.058;9.028;2023-06-14T09:47:50;25.00;93.00
24103;DHT22;12278;53.058;9.028;2023-06-14T09:51:50;25.20;92.40
24103;DHT22;12278;53.058;9.028;2023-06-14T09:55:51;25.50;91.50
24103;DHT22;12278;53.058;9.028;2023-06-14T09:59:53;24.90;91.10
24103;DHT22;12278;53.058;9.028;2023-06-14T10:04:14;24.90;91.40
24103;DHT22;12278;53.058;9.028;2023-06-14T10:08:16;25.20;91.40
24103;DHT22;12278;53.058;9.028;2023-06-14T10:12:18;25.40;91.40
24103;DHT22;12278;53.058;9.028;2023-06-14T10:16:35;25.20;90.40
24103;DHT22;12278;53.058;9.028;2023-06-14T10:24:45;25.40;90.60
24103;DHT22;12278;53.058;9.028;2023-06-14T10:28:54;25.50;90.50
24103;DHT22;12278;53.058;9.028;2023-06-14T10:33:08;25.80;87.90
24103;DHT22;12278;53.058;9.028;2023-06-14T10:37:11;25.70;88.70
24103;DHT22;12278;53.058;9.028;2023-06-14T10:41:11;25.70;89.30
24103;DHT22;12278;53.058;9.028;2023-06-14T10:45:15;25.80;87.40
24103;DHT22;12278;53.058;9.028;2023-06-14T10:49:16;26.00;89.00
24103;DHT22;12278;53.058;9.028;2023-06-14T10:53:22;26.10;87.20
24103;DHT22;12278;53.058;9.028;2023-06-14T10:57:24;25.60;88.50
24103;DHT22;12278;53.058;9.028;2023-06-14T11:01:32;26.40;87.80
24103;DHT22;12278;53.058;9.028;2023-06-14T11:09:51;26.50;84.90
24103;DHT22;12278;53.058;9.028;2023-06-14T11:13:58;27.20;84.20
24103;DHT22;12278;53.058;9.028;2023-06-14T11:18:00;26.90;80.60
24103;DHT22;12278;53.058;9.028;2023-06-14T11:22:01;26.50;82.80
24103;DHT22;12278;53.058;9.028;2023-06-14T11:26:02;26.20;83.80
24103;DHT22;12278;53.058;9.028;2023-06-14T11:30:06;26.20;83.10
24103;DHT22;12278;53.058;9.028;2023-06-14T11:34:07;25.50;87.10
24103;DHT22;12278;53.058;9.028;2023-06-14T11:38:09;25.20;87.20
24103;DHT22;12278;53.058;9.028;2023-06-14T11:42:17;24.90;89.80
24103;DHT22;12278;53.058;9.028;2023-06-14T11:46:18;24.90;89.70
24103;DHT22;12278;53.058;9.028;2023-06-14T11:50:24;24.90;90.30
24103;DHT22;12278;53.058;9.028;2023-06-14T11:54:25;24.40;89.90
24103;DHT22;12278;53.058;9.028;2023-06-14T11:58:26;24.20;90.10
24103;DHT22;12278;53.058;9.028;2023-06-14T12:02:27;24.70;88.80
24103;DHT22;12278;53.058;9.028;2023-06-14T12:06:32;25.90;86.40
24103;DHT22;12278;53.058;9.028;2023-06-14T12:10:40;26.50;85.00
24103;DHT22;12278;53.058;9.028;2023-06-14T12:14:44;26.50;83.30
24103;DHT22;12278;53.058;9.028;2023-06-14T12:18:44;27.40;84.50
24103;DHT22;12278;53.058;9.028;2023-06-14T12:22:57;27.80;83.40
24103;DHT22;12278;53.058;9.028;2023-06-14T12:26:59;27.80;81.20
24103;DHT22;12278;53.058;9.028;2023-06-14T12:31:00;27.50;83.00
24103;DHT22;12278;53.058;9.028;2023-06-14T12:35:01;27.60;78.40
24103;DHT22;12278;53.058;9.028;2023-06-14T12:39:02;26.40;82.60
24103;DHT22;12278;53.058;9.028;2023-06-14T12:43:02;25.90;82.60
24103;DHT22;12278;53.058;9.028;2023-06-14T12:47:04;25.40;84.60
24103;DHT22;12278;53.058;9.028;2023-06-14T12:51:05;24.90;86.60
24103;DHT22;12278;53.058;9.028;2023-06-14T12:55:06;24.70;87.90
24103;DHT22;12278;53.058;9.028;2023-06-14T12:59:07;24.60;88.10
24103;DHT22;12278;53.058;9.028;2023-06-14T13:03:09;24.70;89.90
24103;DHT22;12278;53.058;9.028;2023-06-14T13:07:10;24.80;88.50
24103;DHT22;12278;53.058;9.028;2023-06-14T13:11:11;25.10;87.60
24103;DHT22;12278;53.058;9.028;2023-06-14T13:15:11;26.50;84.60
24103;DHT22;12278;53.058;9.028;2023-06-14T13:19:12;26.50;81.80
24103;DHT22;12278;53.058;9.028;2023-06-14T13:23:14;25.50;81.80
24103;DHT22;12278;53.058;9.028;2023-06-14T13:27:15;25.20;85.20
24103;DHT22;12278;53.058;9.028;2023-06-14T13:31:16;25.10;85.50
24103;DHT22;12278;53.058;9.028;2023-06-14T13:35:19;24.90;87.50
24103;DHT22;12278;53.058;9.028;2023-06-14T13:39:20;24.90;87.10
24103;DHT22;12278;53.058;9.028;2023-06-14T13:43:21;25.80;88.10
24103;DHT22;12278;53.058;9.028;2023-06-14T13:47:23;27.00;82.60
24103;DHT22;12278;53.058;9.028;2023-06-14T13:51:24;26.40;82.90
24103;DHT22;12278;53.058;9.028;2023-06-14T13:55:24;27.00;83.80
24103;DHT22;12278;53.058;9.028;2023-06-14T13:59:25;29.30;77.60
24103;DHT22;12278;53.058;9.028;2023-06-14T14:03:26;30.90;73.70
24103;DHT22;12278;53.058;9.028;2023-06-14T14:07:26;29.30;72.00
24103;DHT22;12278;53.058;9.028;2023-06-14T14:11:28;27.60;76.20
24103;DHT22;12278;53.058;9.028;2023-06-14T14:15:32;26.30;80.30
24103;DHT22;12278;53.058;9.028;2023-06-14T14:19:35;25.70;82.20
24103;DHT22;12278;53.058;9.028;2023-06-14T14:23:35;25.40;80.80
24103;DHT22;12278;53.058;9.028;2023-06-14T14:27:36;25.10;84.90
24103;DHT22;12278;53.058;9.028;2023-06-14T14:31:37;25.00;85.00
24103;DHT22;12278;53.058;9.028;2023-06-14T14:35:38;26.00;85.80
24103;DHT22;12278;53.058;9.028;2023-06-14T14:39:38;26.40;85.70
24103;DHT22;12278;53.058;9.028;2023-06-14T14:43:39;26.00;82.30
24103;DHT22;12278;53.058;9.028;2023-06-14T14:47:40;25.60;86.70
24103;DHT22;12278;53.058;9.028;2023-06-14T14:51:41;25.40;87.60
24103;DHT22;12278;53.058;9.028;2023-06-14T14:55:42;25.10;90.20
24103;DHT22;12278;53.058;9.028;2023-06-14T14:59:43;24.90;88.30
24103;DHT22;12278;53.058;9.028;2023-06-14T15:03:43;24.60;90.00
24103;DHT22;12278;53.058;9.028;2023-06-14T15:07:44;24.60;90.70
24103;DHT22;12278;53.058;9.028;2023-06-14T15:11:48;24.60;91.30
24103;DHT22;12278;53.058;9.028;2023-06-14T15:15:48;24.90;91.30
24103;DHT22;12278;53.058;9.028;2023-06-14T15:19:50;26.30;87.80
24103;DHT22;12278;53.058;9.028;2023-06-14T15:23:52;26.90;90.40
24103;DHT22;12278;53.058;9.028;2023-06-14T15:27:54;27.10;85.50
24103;DHT22;12278;53.058;9.028;2023-06-14T15:31:55;26.90;84.60
24103;DHT22;12278;53.058;9.028;2023-06-14T15:35:58;26.10;89.10
24103;DHT22;12278;53.058;9.028;2023-06-14T15:39:58;25.90;90.10
24103;DHT22;12278;53.058;9.028;2023-06-14T15:43:59;27.20;89.90
24103;DHT22;12278;53.058;9.028;2023-06-14T15:48:00;29.70;79.70
24103;DHT22;12278;53.058;9.028;2023-06-14T15:52:00;31.30;74.00
24103;DHT22;12278;53.058;9.028;2023-06-14T15:56:01;32.40;71.40
24103;DHT22;12278;53.058;9.028;2023-06-14T16:00:02;33.20;63.30
24103;DHT22;12278;53.058;9.028;2023-06-14T16:04:06;32.90;68.60
24103;DHT22;12278;53.058;9.028;2023-06-14T16:08:07;32.70;68.30
24103;DHT22;12278;53.058;9.028;2023-06-14T16:12:08;32.80;63.50
24103;DHT22;12278;53.058;9.028;2023-06-14T16:16:11;32.80;60.40
24103;DHT22;12278;53.058;9.028;2023-06-14T16:20:12;32.40;59.40
24103;DHT22;12278;53.058;9.028;2023-06-14T16:24:13;32.20;59.00
24103;DHT22;12278;53.058;9.028;2023-06-14T16:28:14;32.30;57.30
24103;DHT22;12278;53.058;9.028;2023-06-14T16:32:15;31.90;58.70
24103;DHT22;12278;53.058;9.028;2023-06-14T16:36:16;30.50;60.50
24103;DHT22;12278;53.058;9.028;2023-06-14T16:40:17;29.00;68.40
24103;DHT22;12278;53.058;9.028;2023-06-14T16:44:17;29.30;65.00
24103;DHT22;12278;53.058;9.028;2023-06-14T16:48:18;27.80;68.40
24103;DHT22;12278;53.058;9.028;2023-06-14T16:52:19;26.70;73.50
24103;DHT22;12278;53.058;9.028;2023-06-14T16:56:20;25.40;78.30
24103;DHT22;12278;53.058;9.028;2023-06-14T17:00:21;24.40;82.60
24103;DHT22;12278;53.058;9.028;2023-06-14T17:04:22;24.10;81.60
24103;DHT22;12278;53.058;9.028;2023-06-14T17:08:24;24.00;82.90
24103;DHT22;12278;53.058;9.028;2023-06-14T17:12:25;23.70;86.10
24103;DHT22;12278;53.058;9.028;2023-06-14T17:16:26;23.50;89.20
24103;DHT22;12278;53.058;9.028;2023-06-14T17:20:27;23.40;88.50
24103;DHT22;12278;53.058;9.028;2023-06-14T17:24:27;23.20;86.80
24103;DHT22;12278;53.058;9.028;2023-06-14T17:28:28;23.30;89.00
24103;DHT22;12278;53.058;9.028;2023-06-14T17:32:28;23.10;91.50
24103;DHT22;12278;53.058;9.028;2023-06-14T17:36:30;23.10;89.00
24103;DHT22;12278;53.058;9.028;2023-06-14T17:40:31;23.00;91.50
24103;DHT22;12278;53.058;9.028;2023-06-14T17:44:32;22.90;91.80
24103;DHT22;12278;53.058;9.028;2023-06-14T17:48:33;22.90;92.30
24103;DHT22;12278;53.058;9.028;2023-06-14T17:52:34;22.80;92.50
24103;DHT22;12278;53.058;9.028;2023-06-14T17:56:35;22.60;93.90
24103;DHT22;12278;53.058;9.028;2023-06-14T18:00:35;22.50;94.60
24103;DHT22;12278;53.058;9.028;2023-06-14T18:04:36;22.60;95.30
24103;DHT22;12278;53.058;9.028;2023-06-14T18:08:36;22.60;95.80
24103;DHT22;12278;53.058;9.028;2023-06-14T18:12:38;22.60;96.60
24103;DHT22;12278;53.058;9.028;2023-06-14T18:16:39;22.60;95.40
24103;DHT22;12278;53.058;9.028;2023-06-14T18:20:40;22.70;94.80
24103;DHT22;12278;53.058;9.028;2023-06-14T18:24:41;22.80;94.60
24103;DHT22;12278;53.058;9.028;2023-06-14T18:28:42;22.90;94.60
24103;DHT22;12278;53.058;9.028;2023-06-14T18:32:43;23.00;94.60
24103;DHT22;12278;53.058;9.028;2023-06-14T18:36:47;23.10;94.30
24103;DHT22;12278;53.058;9.028;2023-06-14T18:40:47;23.20;94.20
24103;DHT22;12278;53.058;9.028;2023-06-14T18:44:51;23.10;94.80
24103;DHT22;12278;53.058;9.028;2023-06-14T18:48:52;23.20;92.70
24103;DHT22;12278;53.058;9.028;2023-06-14T18:52:54;23.20;93.10
24103;DHT22;12278;53.058;9.028;2023-06-14T18:56:54;23.10;93.70
24103;DHT22;12278;53.058;9.028;2023-06-14T19:00:55;23.00;93.60
24103;DHT22;12278;53.058;9.028;2023-06-14T19:04:55;22.80;94.20
24103;DHT22;12278;53.058;9.028;2023-06-14T19:08:56;22.70;94.00
24103;DHT22;12278;53.058;9.028;2023-06-14T19:12:57;22.40;94.50
24103;DHT22;12278;53.058;9.028;2023-06-14T19:16:58;22.30;94.40
24103;DHT22;12278;53.058;9.028;2023-06-14T19:20:59;22.30;93.40
24103;DHT22;12278;53.058;9.028;2023-06-14T19:24:59;22.10;94.50
24103;DHT22;12278;53.058;9.028;2023-06-14T19:29:00;22.00;94.60
24103;DHT22;12278;53.058;9.028;2023-06-14T19:33:01;21.70;94.80
24103;DHT22;12278;53.058;9.028;2023-06-14T19:37:02;21.60;95.20
24103;DHT22;12278;53.058;9.028;2023-06-14T19:41:05;21.40;95.60
24103;DHT22;12278;53.058;9.028;2023-06-14T19:45:06;21.20;96.00
24103;DHT22;12278;53.058;9.028;2023-06-14T19:49:08;21.00;96.70
24103;DHT22;12278;53.058;9.028;2023-06-14T19:53:08;20.90;96.70
24103;DHT22;12278;53.058;9.028;2023-06-14T19:57:11;20.80;97.00
24103;DHT22;12278;53.058;9.028;2023-06-14T20:01:12;20.60;97.20
24103;DHT22;12278;53.058;9.028;2023-06-14T20:05:13;20.50;97.40
24103;DHT22;12278;53.058;9.028;2023-06-14T20:09:14;20.30;97.80
24103;DHT22;12278;53.058;9.028;2023-06-14T20:13:17;20.20;98.00
24103;DHT22;12278;53.058;9.028;2023-06-14T20:17:17;20.10;98.20
24103;DHT22;12278;53.058;9.028;2023-06-14T20:21:18;20.00;98.50
24103;DHT22;12278;53.058;9.028;2023-06-14T20:25:18;20.00;98.50
24103;DHT22;12278;53.058;9.028;2023-06-14T20:29:19;19.90;98.50
24103;DHT22;12278;53.058;9.028;2023-06-14T20:33:21;19.90;97.90
24103;DHT22;12278;53.058;9.028;2023-06-14T20:37:22;19.90;98.10
24103;DHT22;12278;53.058;9.028;2023-06-14T20:41:23;19.90;97.00
24103;DHT22;12278;53.058;9.028;2023-06-14T20:45:24;19.80;97.60
24103;DHT22;12278;53.058;9.028;2023-06-14T20:49:26;19.70;97.80
24103;DHT22;12278;53.058;9.028;2023-06-14T20:53:29;19.50;97.90
24103;DHT22;12278;53.058;9.028;2023-06-14T20:57:30;19.40;98.20
24103;DHT22;12278;53.058;9.028;2023-06-14T21:01:31;19.30;98.80
24103;DHT22;12278;53.058;9.028;2023-06-14T21:05:37;19.20;98.60
24103;DHT22;12278;53.058;9.028;2023-06-14T21:09:39;19.10;99.20
24103;DHT22;12278;53.058;9.028;2023-06-14T21:13:40;19.00;99.60
24103;DHT22;12278;53.058;9.028;2023-06-14T21:17:41;18.90;99.70
24103;DHT22;12278;53.058;9.028;2023-06-14T21:21:45;18.80;99.90
24103;DHT22;12278;53.058;9.028;2023-06-14T21:25:46;18.70;99.60
24103;DHT22;12278;53.058;9.028;2023-06-14T21:29:46;18.60;99.90
24103;DHT22;12278;53.058;9.028;2023-06-14T21:33:49;18.60;99.90
24103;DHT22;12278;53.058;9.028;2023-06-14T21:37:52;18.50;99.90
24103;DHT22;12278;53.058;9.028;2023-06-14T21:41:52;18.50;99.90
24103;DHT22;12278;53.058;9.028;2023-06-14T21:45:54;18.30;99.90
24103;DHT22;12278;53.058;9.028;2023-06-14T21:49:55;18.20;99.90
24103;DHT22;12278;53.058;9.028;2023-06-14T21:53:55;18.20;99.90
24103;DHT22;12278;53.058;9.028;2023-06-14T21:57:56;18.10;99.90
24103;DHT22;12278;53.058;9.028;2023-06-14T22:01:56;18.00;99.90
24103;DHT22;12278;53.058;9.028;2023-06-14T22:05:57;17.90;99.90
24103;DHT22;12278;53.058;9.028;2023-06-14T22:09:58;17.80;99.90
24103;DHT22;12278;53.058;9.028;2023-06-14T22:13:59;17.70;99.90
24103;DHT22;12278;53.058;9.028;2023-06-14T22:17:59;17.50;99.90
24103;DHT22;12278;53.058;9.028;2023-06-14T22:22:03;17.40;99.90
24103;DHT22;12278;53.058;9.028;2023-06-14T22:26:06;17.30;99.90
24103;DHT22;12278;53.058;9.028;2023-06-14T22:30:08;17.20;99.90
24103;DHT22;12278;53.058;9.028;2023-06-14T22:34:09;17.20;99.90
24103;DHT22;12278;53.058;9.028;2023-06-14T22:38:09;17.20;99.90
24103;DHT22;12278;53.058;9.028;2023-06-14T22:42:12;17.10;99.90
24103;DHT22;12278;53.058;9.028;2023-06-14T22:46:17;17.00;99.90
24103;DHT22;12278;53.058;9.028;2023-06-14T22:50:23;17.00;99.90
24103;DHT22;12278;53.058;9.028;2023-06-14T22:54:23;16.80;99.90
24103;DHT22;12278;53.058;9.028;2023-06-14T22:58:24;16.80;99.90
24103;DHT22;12278;53.058;9.028;2023-06-14T23:02:25;16.60;99.90
24103;DHT22;12278;53.058;9.028;2023-06-14T23:06:25;16.60;99.90
24103;DHT22;12278;53.058;9.028;2023-06-14T23:10:26;16.50;99.90
24103;DHT22;12278;53.058;9.028;2023-06-14T23:14:28;16.50;99.90
24103;DHT22;12278;53.058;9.028;2023-06-14T23:18:29;16.50;99.90
24103;DHT22;12278;53.058;9.028;2023-06-14T23:22:29;16.40;99.90
24103;DHT22;12278;53.058;9.028;2023-06-14T23:26:35;16.30;99.90
24103;DHT22;12278;53.058;9.028;2023-06-14T23:30:36;16.20;99.90
24103;DHT22;12278;53.058;9.028;2023-06-14T23:34:37;16.00;99.90
24103;DHT22;12278;53.058;9.028;2023-06-14T23:38:38;16.10;99.90
24103;DHT22;12278;53.058;9.028;2023-06-14T23:42:42;16.00;99.90
24103;DHT22;12278;53.058;9.028;2023-06-14T23:46:43;16.10;99.90
24103;DHT22;12278;53.058;9.028;2023-06-14T23:50:44;16.10;99.90
24103;DHT22;12278;53.058;9.028;2023-06-14T23:54:45;16.10;99.90
24103;DHT22;12278;53.058;9.028;2023-06-14T23:58:46;15.90;99.90
